Time,TemperatureF,DewpointF,PressureIn,WindDirection,WindDirectionDegrees,WindSpeedMPH,WindSpeedGustMPH,Humidity,HourlyPrecipIn,Conditions,Clouds,dailyrainin,SoftwareType,DateUTC
2013-09-29 00:22:00,52.0,43.0,30.01,North,0,0.0,-999.0,71,-99.99,,,-99.99,,2013-09-29 05:22:00,
2013-09-29 00:43:00,52.0,43.0,30.01,SSW,200,5.0,-999.0,71,-99.99,,,-99.99,,2013-09-29 05:43:00,
2013-09-29 01:22:00,52.0,43.0,30.01,North,0,0.0,-999.0,71,-99.99,,,-99.99,,2013-09-29 06:22:00,
2013-09-29 01:42:00,52.0,43.0,30.01,North,0,0.0,-999.0,71,-99.99,,,-99.99,,2013-09-29 06:42:00,
2013-09-29 02:22:00,46.0,39.0,30.02,North,0,0.0,-999.0,75,-99.99,,,-99.99,,2013-09-29 07:22:00,
2013-09-29 02:43:00,48.0,43.0,30.01,North,0,0.0,-999.0,81,-99.99,,,-99.99,,2013-09-29 07:43:00,
2013-09-29 02:52:00,48.0,41.0,30.01,North,0,0.0,-999.0,76,-99.99,,,-99.99,,2013-09-29 07:52:00,
2013-09-29 03:02:00,48.0,41.0,30.01,North,0,0.0,-999.0,76,-99.99,,,-99.99,,2013-09-29 08:02:00,
2013-09-29 03:22:00,50.0,41.0,30.01,North,0,0.0,-999.0,71,-99.99,,,-99.99,,2013-09-29 08:22:00,
2013-09-29 03:42:00,48.0,41.0,30.01,North,0,0.0,-999.0,76,-99.99,,,-99.99,,2013-09-29 08:42:00,
2013-09-29 04:22:00,45.0,39.0,30.00,North,0,0.0,-999.0,81,-99.99,,,-99.99,,2013-09-29 09:22:00,
2013-09-29 04:43:00,45.0,39.0,30.00,North,0,0.0,-999.0,81,-99.99,,,-99.99,,2013-09-29 09:43:00,
2013-09-29 05:23:00,46.0,41.0,29.99,North,0,0.0,-999.0,81,-99.99,,,-99.99,,2013-09-29 10:23:00,
2013-09-29 05:43:00,48.0,41.0,29.99,North,0,0.0,-999.0,76,-99.99,,,-99.99,,2013-09-29 10:43:00,
2013-09-29 05:53:00,48.0,41.0,29.99,SSE,150,5.0,-999.0,76,-99.99,,,-99.99,,2013-09-29 10:53:00,
2013-09-29 06:03:00,48.0,41.0,29.99,SSE,150,5.0,-999.0,76,-99.99,,,-99.99,,2013-09-29 11:03:00,
2013-09-29 06:12:00,48.0,41.0,29.99,SSE,150,5.0,-999.0,76,-99.99,,,-99.99,,2013-09-29 11:12:00,
2013-09-29 06:22:00,48.0,41.0,29.99,SSE,150,5.0,-999.0,76,-99.99,,,-99.99,,2013-09-29 11:22:00,
2013-09-29 06:42:00,48.0,41.0,29.98,SSE,150,5.0,-999.0,76,-99.99,,,-99.99,,2013-09-29 11:42:00,
2013-09-29 06:52:00,48.0,41.0,29.98,North,0,0.0,-999.0,76,-99.99,,,-99.99,,2013-09-29 11:52:00,
2013-09-29 07:01:00,48.0,41.0,29.98,North,0,0.0,-999.0,76,-99.99,,,-99.99,,2013-09-29 12:01:00,
2013-09-29 07:21:00,48.0,41.0,29.98,SSE,150,6.0,-999.0,76,-99.99,,,-99.99,,2013-09-29 12:21:00,
2013-09-29 07:42:00,48.0,41.0,29.97,SSE,150,6.0,-999.0,76,-99.99,,,-99.99,,2013-09-29 12:42:00,
2013-09-29 08:22:00,48.0,43.0,29.97,SE,140,5.0,-999.0,81,-99.99,,,-99.99,,2013-09-29 13:22:00,
2013-09-29 08:42:00,48.0,41.0,29.97,SSE,160,6.0,-999.0,76,-99.99,,,-99.99,,2013-09-29 13:42:00,
2013-09-29 09:21:00,52.0,43.0,29.97,SSE,160,7.0,-999.0,71,-99.99,,,-99.99,,2013-09-29 14:21:00,
2013-09-29 09:43:00,54.0,45.0,29.97,SSE,160,5.0,-999.0,71,-99.99,,,-99.99,,2013-09-29 14:43:00,
2013-09-29 10:22:00,57.0,46.0,29.96,SSE,160,5.0,-999.0,67,-99.99,,,-99.99,,2013-09-29 15:22:00,
2013-09-29 10:45:00,61.0,45.0,29.96,SSW,200,8.0,-999.0,55,-99.99,,,-99.99,,2013-09-29 15:45:00,
2013-09-29 11:24:00,64.0,46.0,29.95,SSW,200,8.0,-999.0,51,-99.99,,,-99.99,,2013-09-29 16:24:00,
2013-09-29 11:44:00,66.0,46.0,29.95,South,180,9.0,-999.0,48,-99.99,,,-99.99,,2013-09-29 16:44:00,
2013-09-29 12:43:00,70.0,46.0,29.93,South,180,7.0,-999.0,43,-99.99,,,-99.99,,2013-09-29 17:43:00,
2013-09-29 13:22:00,73.0,46.0,29.91,SE,140,12.0,16.0,38,-99.99,,,-99.99,,2013-09-29 18:22:00,
2013-09-29 13:42:00,75.0,46.0,29.90,South,170,12.0,24.0,35,-99.99,,,-99.99,,2013-09-29 18:42:00,
2013-09-29 14:22:00,77.0,46.0,29.88,South,190,13.0,21.0,33,-99.99,,,-99.99,,2013-09-29 19:22:00,
2013-09-29 14:42:00,79.0,46.0,29.87,South,190,16.0,22.0,31,-99.99,,,-99.99,,2013-09-29 19:42:00,
2013-09-29 15:22:00,81.0,43.0,29.85,SSW,200,14.0,27.0,26,-99.99,,,-99.99,,2013-09-29 20:22:00,
2013-09-29 15:43:00,81.0,45.0,29.84,SSW,210,16.0,27.0,28,-99.99,,,-99.99,,2013-09-29 20:43:00,
2013-09-29 15:52:00,81.0,45.0,29.83,South,180,16.0,22.0,28,-99.99,,,-99.99,,2013-09-29 20:52:00,
2013-09-29 16:02:00,81.0,45.0,29.83,South,180,16.0,22.0,28,-99.99,,,-99.99,,2013-09-29 21:02:00,
2013-09-29 16:21:00,81.0,45.0,29.82,SSW,200,16.0,24.0,28,-99.99,,,-99.99,,2013-09-29 21:21:00,
2013-09-29 16:44:00,81.0,45.0,29.81,South,180,14.0,21.0,28,-99.99,,,-99.99,,2013-09-29 21:44:00,
2013-09-29 17:24:00,82.0,43.0,29.80,South,190,16.0,25.0,24,-99.99,,,-99.99,,2013-09-29 22:24:00,
2013-09-29 17:43:00,81.0,45.0,29.80,South,170,17.0,31.0,28,-99.99,,,-99.99,,2013-09-29 22:43:00,
2013-09-29 18:23:00,79.0,43.0,29.80,South,180,16.0,25.0,27,-99.99,,,-99.99,,2013-09-29 23:23:00,
2013-09-29 18:43:00,77.0,45.0,29.80,South,180,15.0,24.0,31,-99.99,,,-99.99,,2013-09-29 23:43:00,
2013-09-29 19:22:00,75.0,45.0,29.80,South,170,10.0,23.0,33,-99.99,,,-99.99,,2013-09-30 00:22:00,
2013-09-29 19:42:00,73.0,45.0,29.81,South,180,12.0,-999.0,35,-99.99,,,-99.99,,2013-09-30 00:42:00,
2013-09-29 20:22:00,72.0,45.0,29.80,SSE,160,13.0,-999.0,37,-99.99,,,-99.99,,2013-09-30 01:22:00,
2013-09-29 20:42:00,70.0,45.0,29.81,South,170,13.0,21.0,40,-99.99,,,-99.99,,2013-09-30 01:42:00,
2013-09-29 21:22:00,70.0,45.0,29.81,South,170,16.0,24.0,40,-99.99,,,-99.99,,2013-09-30 02:22:00,
2013-09-29 21:42:00,70.0,45.0,29.81,SSE,160,12.0,20.0,40,-99.99,,,-99.99,,2013-09-30 02:42:00,
2013-09-29 22:22:00,68.0,45.0,29.81,SSE,160,17.0,25.0,42,-99.99,,,-99.99,,2013-09-30 03:22:00,
2013-09-29 22:44:00,66.0,45.0,29.81,South,170,13.0,25.0,45,-99.99,,,-99.99,,2013-09-30 03:44:00,
2013-09-29 23:25:00,66.0,45.0,29.80,SSE,160,16.0,27.0,45,-99.99,,,-99.99,,2013-09-30 04:25:00,
2013-09-29 23:44:00,66.0,45.0,29.80,SSE,150,14.0,23.0,45,-99.99,,,-99.99,,2013-09-30 04:44:00,